createdAt,value
2024-01-05T00:01:03.113Z,32.23
2024-01-05T00:03:30.065Z,30.70
2024-01-05T00:05:57.001Z,30.50
2024-01-05T00:08:23.828Z,29.63
2024-01-05T00:10:50.769Z,37.70
2024-01-05T00:13:17.765Z,32.67
2024-01-05T00:15:44.585Z,30.33
2024-01-05T00:18:11.723Z,29.40
2024-01-05T00:20:38.528Z,31.60
2024-01-05T00:23:05.328Z,28.20
2024-01-05T00:25:32.573Z,35.87
2024-01-05T00:27:59.298Z,26.60
2024-01-05T00:30:26.112Z,29.77
2024-01-05T00:32:53.186Z,23.20
2024-01-05T00:35:19.992Z,26.50
2024-01-05T00:37:46.704Z,25.50
2024-01-05T00:40:13.724Z,29.00
2024-01-05T00:42:40.507Z,31.07
2024-01-05T00:45:08.040Z,26.67
2024-01-05T00:47:35.068Z,23.60
2024-01-05T00:50:02.059Z,23.93
2024-01-05T00:52:28.777Z,25.80
2024-01-05T00:54:55.759Z,22.87
2024-01-05T00:57:22.582Z,19.60
2024-01-05T00:59:49.697Z,18.23
2024-01-05T01:02:16.718Z,14.00
2024-01-05T01:04:43.559Z,18.33
2024-01-05T01:07:10.376Z,22.10
2024-01-05T01:09:37.406Z,20.10
2024-01-05T01:12:04.567Z,21.67
2024-01-05T01:14:31.334Z,23.53
2024-01-05T01:16:58.071Z,20.13
2024-01-05T01:19:25.160Z,18.60
2024-01-05T01:21:52.285Z,24.07
2024-01-05T01:24:19.022Z,20.03
2024-01-05T01:26:46.012Z,19.37
2024-01-05T01:29:12.943Z,22.50
2024-01-05T01:31:39.720Z,21.40
2024-01-05T01:34:08.512Z,19.07
2024-01-05T01:36:35.527Z,17.87
2024-01-05T01:39:02.342Z,23.57
2024-01-05T01:41:29.110Z,19.50
2024-01-05T01:43:56.669Z,19.70
2024-01-05T01:46:24.350Z,20.13
2024-01-05T01:48:52.161Z,23.30
2024-01-05T01:51:19.488Z,17.90
2024-01-05T01:53:46.449Z,23.60
2024-01-05T01:56:14.381Z,25.70
2024-01-05T01:58:43.403Z,20.37
2024-01-05T02:01:11.050Z,20.57
2024-01-05T02:03:38.050Z,20.63
2024-01-05T02:06:05.111Z,24.73
2024-01-05T02:08:32.414Z,22.03
2024-01-05T02:10:59.134Z,19.97
2024-01-05T02:13:26.099Z,23.87
2024-01-05T02:15:52.813Z,24.17
2024-01-05T02:18:19.743Z,22.70
2024-01-05T02:20:48.320Z,26.70
2024-01-05T02:23:21.532Z,23.87
2024-01-05T02:25:48.449Z,21.63
2024-01-05T02:28:15.258Z,25.30
2024-01-05T02:30:42.138Z,24.83
2024-01-05T02:33:09.187Z,25.00
2024-01-05T02:35:36.118Z,23.60
2024-01-05T02:38:03.024Z,21.83
2024-01-05T02:40:30.324Z,30.50
2024-01-05T02:42:57.135Z,25.50
2024-01-05T02:45:25.187Z,26.97
2024-01-05T02:47:52.994Z,23.67
2024-01-05T02:50:21.823Z,29.57
2024-01-05T02:52:48.555Z,24.03
2024-01-05T02:55:15.678Z,31.07
2024-01-05T02:57:42.450Z,30.40
2024-01-05T03:00:09.776Z,29.77
2024-01-05T03:02:36.688Z,24.70
2024-01-05T03:05:05.287Z,30.30
2024-01-05T03:07:32.218Z,25.67
2024-01-05T03:09:59.155Z,24.87
2024-01-05T03:12:25.987Z,26.80
2024-01-05T03:14:52.789Z,24.13
2024-01-05T03:17:19.780Z,23.97
2024-01-05T03:19:46.660Z,26.70
2024-01-05T03:22:13.442Z,22.60
2024-01-05T03:24:41.411Z,24.73
2024-01-05T03:27:09.911Z,20.87
2024-01-05T03:29:37.941Z,30.50
2024-01-05T03:32:05.130Z,28.07
2024-01-05T03:34:32.032Z,23.53
2024-01-05T03:36:59.038Z,23.70
2024-01-05T03:39:26.943Z,20.93
2024-01-05T03:41:54.328Z,25.73
2024-01-05T03:44:23.858Z,23.57
2024-01-05T03:46:53.972Z,22.50
2024-01-05T03:49:20.808Z,26.13
2024-01-05T03:51:47.815Z,19.50
2024-01-05T03:54:14.624Z,21.77
2024-01-05T03:56:42.326Z,21.53
2024-01-05T03:59:09.974Z,19.73
2024-01-05T04:01:46.723Z,25.17
2024-01-05T04:04:14.373Z,23.43
2024-01-05T04:06:41.999Z,18.43
2024-01-05T04:09:12.643Z,20.50
2024-01-05T04:11:40.182Z,20.70
2024-01-05T04:14:07.984Z,21.00
2024-01-05T04:16:35.074Z,18.57
2024-01-05T04:19:03.052Z,16.27
2024-01-05T04:21:30.140Z,18.70
2024-01-05T04:23:58.073Z,18.23
2024-01-05T04:26:25.112Z,20.70
2024-01-05T04:28:52.194Z,15.27
2024-01-05T04:31:19.001Z,20.60
2024-01-05T04:33:46.126Z,19.40
2024-01-05T04:36:16.734Z,15.77
2024-01-05T04:38:44.076Z,13.10
2024-01-05T04:41:11.759Z,19.10
2024-01-05T04:43:38.673Z,18.77
2024-01-05T04:46:06.718Z,13.10
2024-01-05T04:48:33.815Z,16.40
2024-01-05T04:51:02.039Z,15.53
2024-01-05T04:53:28.790Z,15.70
2024-01-05T04:55:55.750Z,13.47
2024-01-05T04:58:23.059Z,13.50
2024-01-05T05:00:49.954Z,13.90
2024-01-05T05:03:17.125Z,16.87
2024-01-05T05:05:44.106Z,11.57
2024-01-05T05:08:14.247Z,14.50
2024-01-05T05:10:41.610Z,15.77
2024-01-05T05:13:08.449Z,13.23
2024-01-05T05:15:35.336Z,17.93
2024-01-05T05:18:02.482Z,13.20
2024-01-05T05:20:29.283Z,10.30
2024-01-05T05:22:56.125Z,13.70
2024-01-05T05:25:23.322Z,12.13
2024-01-05T05:27:50.290Z,11.13
2024-01-05T05:30:17.976Z,11.07
2024-01-05T05:32:45.037Z,11.80
2024-01-05T05:35:11.798Z,12.43
2024-01-05T05:37:38.507Z,11.17
2024-01-05T05:40:06.135Z,9.67
2024-01-05T05:42:32.923Z,13.03
2024-01-05T05:45:00.075Z,16.03
2024-01-05T05:47:27.048Z,12.50
2024-01-05T05:49:54.431Z,10.83
2024-01-05T05:52:21.188Z,13.30
2024-01-05T05:54:48.132Z,12.67
2024-01-05T05:57:15.078Z,14.17
2024-01-05T05:59:42.862Z,13.50
2024-01-05T06:02:09.744Z,14.00
2024-01-05T06:04:36.554Z,15.10
2024-01-05T06:07:03.474Z,15.43
2024-01-05T06:09:30.434Z,12.83
2024-01-05T06:11:57.223Z,14.30
2024-01-05T06:14:23.968Z,14.97
2024-01-05T06:16:50.820Z,15.63
2024-01-05T06:19:17.667Z,17.67
2024-01-05T06:21:44.651Z,16.20
2024-01-05T06:24:11.787Z,12.90
2024-01-05T06:26:38.529Z,14.30
2024-01-05T06:29:05.340Z,16.30
2024-01-05T06:31:32.416Z,16.20
2024-01-05T06:34:02.865Z,13.63
2024-01-05T06:36:30.419Z,19.40
2024-01-05T06:38:57.478Z,11.73
2024-01-05T06:41:24.371Z,20.00
2024-01-05T06:43:51.118Z,17.50
2024-01-05T06:46:18.625Z,19.00
2024-01-05T06:48:45.527Z,15.03
2024-01-05T06:51:12.395Z,15.47
2024-01-05T06:53:39.390Z,13.17
2024-01-05T06:56:06.808Z,19.40
2024-01-05T06:58:35.268Z,14.60
2024-01-05T07:01:02.638Z,13.83
2024-01-05T07:03:29.696Z,18.93
2024-01-05T07:05:56.633Z,14.87
2024-01-05T07:08:23.566Z,14.50
2024-01-05T07:10:50.628Z,13.87
2024-01-05T07:13:17.460Z,15.40
2024-01-05T07:15:44.468Z,19.40
2024-01-05T07:18:11.385Z,14.07
2024-01-05T07:20:38.211Z,10.00
2024-01-05T07:23:05.156Z,14.00
2024-01-05T07:25:31.921Z,17.33
2024-01-05T07:27:58.668Z,14.33
2024-01-05T07:30:25.850Z,13.47
2024-01-05T07:32:53.014Z,14.00
2024-01-05T07:35:19.829Z,13.80
2024-01-05T07:37:47.694Z,16.03
2024-01-05T07:40:14.618Z,13.33
2024-01-05T07:42:43.980Z,12.57
2024-01-05T07:45:11.125Z,12.70
2024-01-05T07:47:38.190Z,9.73
2024-01-05T07:50:05.296Z,12.77
2024-01-05T07:52:32.253Z,8.97
2024-01-05T07:54:59.240Z,10.63
2024-01-05T07:57:26.090Z,7.63
2024-01-05T07:59:53.058Z,11.87
2024-01-05T08:02:20.376Z,9.93
2024-01-05T08:04:47.126Z,7.80
2024-01-05T08:07:14.407Z,10.03
2024-01-05T08:09:44.469Z,7.87
2024-01-05T08:12:11.380Z,10.50
2024-01-05T08:14:39.984Z,9.13
2024-01-05T08:17:06.797Z,8.20
2024-01-05T08:19:35.220Z,10.87
2024-01-05T08:22:02.294Z,11.07
2024-01-05T08:24:29.213Z,7.37
2024-01-05T08:26:56.586Z,10.07
2024-01-05T08:29:23.882Z,9.87
2024-01-05T08:31:51.222Z,8.70
2024-01-05T08:34:18.640Z,10.50
2024-01-05T08:36:45.799Z,11.30
2024-01-05T08:39:12.622Z,10.23
2024-01-05T08:41:42.772Z,10.27
2024-01-05T08:44:09.779Z,8.87
2024-01-05T08:46:36.617Z,11.33
2024-01-05T08:49:03.859Z,8.10
2024-01-05T08:51:30.806Z,10.33
2024-01-05T08:53:59.387Z,10.90
2024-01-05T08:56:26.288Z,9.27
2024-01-05T08:58:53.195Z,10.40
2024-01-05T09:01:21.527Z,9.27
2024-01-05T09:03:49.167Z,6.90
2024-01-05T09:06:16.310Z,9.70
2024-01-05T09:08:43.114Z,7.20
2024-01-05T09:11:10.040Z,5.53
2024-01-05T09:13:39.168Z,9.57
2024-01-05T09:16:06.293Z,8.93
2024-01-05T09:18:35.514Z,6.80
2024-01-05T09:21:03.640Z,12.27
2024-01-05T09:23:30.512Z,9.10
2024-01-05T09:25:57.258Z,7.67
2024-01-05T09:28:24.178Z,11.73
2024-01-05T09:30:53.721Z,8.47
2024-01-05T09:33:22.362Z,10.07
2024-01-05T09:35:49.191Z,10.07
2024-01-05T09:38:15.918Z,9.27
2024-01-05T09:40:43.044Z,7.10
2024-01-05T09:43:11.900Z,8.70
2024-01-05T09:45:40.183Z,7.07
2024-01-05T09:48:09.391Z,10.10
2024-01-05T09:50:37.869Z,5.97
2024-01-05T09:53:05.972Z,11.70
2024-01-05T09:55:33.893Z,11.13
2024-01-05T09:58:00.894Z,10.43
2024-01-05T10:00:29.674Z,8.93
2024-01-05T10:03:00.706Z,9.90
2024-01-05T10:05:27.717Z,7.10
2024-01-05T10:07:54.787Z,10.57
2024-01-05T10:10:21.778Z,12.73
2024-01-05T10:12:49.015Z,10.43
2024-01-05T10:15:16.035Z,10.17
2024-01-05T10:17:43.160Z,6.23
2024-01-05T10:20:18.028Z,7.77
2024-01-05T10:22:48.161Z,8.17
2024-01-05T10:25:15.948Z,7.20
2024-01-05T10:27:42.755Z,5.60
2024-01-05T10:30:11.615Z,7.83
2024-01-05T10:32:39.921Z,7.33
2024-01-05T10:35:09.553Z,11.93
2024-01-05T10:37:36.633Z,7.07
2024-01-05T10:40:05.400Z,6.80
2024-01-05T10:42:33.787Z,7.00
2024-01-05T10:45:02.587Z,6.60
2024-01-05T10:47:33.153Z,5.23
2024-01-05T10:50:00.500Z,6.67
2024-01-05T10:52:29.991Z,6.77
2024-01-05T10:54:57.155Z,11.27
2024-01-05T10:57:25.333Z,6.40
2024-01-05T10:59:57.081Z,6.23
2024-01-05T11:02:42.494Z,5.33
2024-01-05T11:05:12.430Z,5.83
2024-01-05T11:07:41.404Z,4.60
2024-01-05T11:10:27.460Z,6.23
2024-01-05T11:13:09.336Z,5.77
2024-01-05T11:18:57.248Z,4.47
2024-01-05T11:21:40.897Z,5.33
2024-01-05T11:24:08.787Z,10.47
2024-01-05T11:26:37.718Z,6.43
2024-01-05T11:29:05.158Z,5.10
2024-01-05T11:31:47.218Z,5.73
2024-01-05T11:34:37.396Z,6.50
2024-01-05T11:37:08.361Z,4.93
2024-01-05T11:39:49.298Z,5.70
2024-01-05T11:42:25.121Z,6.43
2024-01-05T11:44:52.822Z,6.17
2024-01-05T11:47:38.583Z,8.00
2024-01-05T11:50:35.717Z,3.17
2024-01-05T11:53:25.990Z,4.03
2024-01-05T11:55:54.460Z,3.83
2024-01-05T11:58:23.368Z,3.97
2024-01-05T12:00:51.820Z,3.23
2024-01-05T12:03:22.011Z,4.97
2024-01-05T12:06:13.929Z,1.93
2024-01-05T12:08:42.096Z,2.63
2024-01-05T12:11:11.044Z,3.77
2024-01-05T12:13:39.830Z,6.50
2024-01-05T12:16:09.337Z,5.30
2024-01-05T12:18:54.004Z,3.17
2024-01-05T12:21:22.692Z,5.70
2024-01-05T12:23:57.752Z,3.57
2024-01-05T12:26:30.083Z,2.53
2024-01-05T12:28:57.844Z,3.00
2024-01-05T12:31:25.818Z,2.57
2024-01-05T12:33:53.613Z,4.67
2024-01-05T12:36:33.409Z,3.03
2024-01-05T12:39:11.702Z,2.13
2024-01-05T12:41:41.013Z,2.47
2024-01-05T12:44:09.162Z,2.30
2024-01-05T12:46:44.498Z,1.53
2024-01-05T12:49:26.899Z,1.83
2024-01-05T12:51:56.698Z,1.43
2024-01-05T12:54:24.111Z,1.50
2024-01-05T12:56:55.850Z,2.93
2024-01-05T12:59:23.784Z,4.50
2024-01-05T13:02:01.006Z,2.67
2024-01-05T13:04:35.695Z,0.77
2024-01-05T13:07:07.944Z,5.10
2024-01-05T13:09:35.057Z,2.20
2024-01-05T13:12:02.189Z,1.53
2024-01-05T13:14:29.691Z,3.60
2024-01-05T13:16:56.600Z,1.53
2024-01-05T13:19:23.603Z,2.67
2024-01-05T13:21:50.715Z,2.03
2024-01-05T13:24:17.570Z,1.93
2024-01-05T13:26:44.483Z,0.90
2024-01-05T13:29:11.604Z,1.20
2024-01-05T13:31:38.547Z,1.00
2024-01-05T13:34:05.620Z,2.40
2024-01-05T13:36:32.723Z,1.40
2024-01-05T13:38:59.538Z,1.00
2024-01-05T13:41:26.405Z,2.43
2024-01-05T13:43:53.441Z,1.90
2024-01-05T13:46:20.273Z,4.70
2024-01-05T13:48:47.092Z,2.60
2024-01-05T13:51:14.204Z,2.90
2024-01-05T13:53:40.953Z,2.80
2024-01-05T13:56:07.873Z,1.57
2024-01-05T13:58:34.967Z,1.07
2024-01-05T14:01:05.174Z,1.20
2024-01-05T14:03:33.128Z,1.70
2024-01-05T14:06:05.206Z,0.70
2024-01-05T14:08:33.178Z,1.70
2024-01-05T14:11:00.289Z,0.93
2024-01-05T14:13:27.188Z,3.87
2024-01-05T14:15:54.207Z,3.00
2024-01-05T14:18:21.217Z,0.50
2024-01-05T14:20:48.230Z,0.80
2024-01-05T14:23:15.193Z,1.30
2024-01-05T14:25:42.079Z,1.50
2024-01-05T14:28:08.849Z,1.07
2024-01-05T14:30:35.808Z,1.20
2024-01-05T14:33:02.796Z,1.40
2024-01-05T14:35:29.700Z,1.83
2024-01-05T14:37:56.710Z,1.50
2024-01-05T14:40:24.479Z,2.03
2024-01-05T14:42:51.237Z,2.97
2024-01-05T14:45:18.219Z,2.03
2024-01-05T14:47:45.104Z,2.70
2024-01-05T14:50:12.313Z,1.97
2024-01-05T14:52:39.257Z,0.60
2024-01-05T14:55:06.578Z,1.63
2024-01-05T14:57:33.348Z,2.80
2024-01-05T15:00:00.483Z,0.87
2024-01-05T15:02:27.320Z,1.90
2024-01-05T15:04:54.169Z,3.97
2024-01-05T15:07:21.292Z,2.30
2024-01-05T15:09:48.371Z,0.50
2024-01-05T15:12:15.284Z,1.60
2024-01-05T15:14:42.657Z,1.20
2024-01-05T15:17:09.402Z,2.10
2024-01-05T15:19:41.021Z,1.60
2024-01-05T15:22:09.217Z,1.13
2024-01-05T15:24:38.120Z,1.80
2024-01-05T15:27:05.157Z,1.07
2024-01-05T15:29:32.403Z,4.30
2024-01-05T15:31:59.157Z,2.10
2024-01-05T15:34:25.955Z,1.73
2024-01-05T15:36:53.002Z,3.30
2024-01-05T15:39:20.274Z,1.03
2024-01-05T15:41:47.272Z,2.00
2024-01-05T15:44:14.291Z,4.20
2024-01-05T15:46:41.237Z,2.27
2024-01-05T15:49:08.584Z,3.33
2024-01-05T15:51:37.885Z,3.37
2024-01-05T15:54:05.703Z,2.83
2024-01-05T15:56:33.930Z,3.37
2024-01-05T15:59:01.187Z,1.77
2024-01-05T16:01:28.245Z,1.73
2024-01-05T16:03:55.300Z,5.80
2024-01-05T16:06:22.378Z,1.37
2024-01-05T16:08:52.458Z,3.90
2024-01-05T16:11:19.467Z,2.10
2024-01-05T16:13:48.453Z,1.60
2024-01-05T16:16:21.580Z,3.27
2024-01-05T16:18:50.840Z,2.30
2024-01-05T16:21:24.846Z,2.97
2024-01-05T16:23:57.184Z,1.37
2024-01-05T16:26:25.832Z,2.40
2024-01-05T16:28:53.537Z,3.37
2024-01-05T16:31:24.363Z,2.13
2024-01-05T16:33:52.210Z,5.17
2024-01-05T16:36:20.333Z,2.27
2024-01-05T16:38:47.329Z,2.83
2024-01-05T16:41:15.550Z,3.07
2024-01-05T16:43:42.449Z,2.77
2024-01-05T16:46:09.262Z,4.93
2024-01-05T16:48:36.574Z,1.83
2024-01-05T16:51:03.805Z,3.07
2024-01-05T16:53:30.808Z,5.53
2024-01-05T16:55:58.214Z,1.80
2024-01-05T16:58:25.282Z,2.50
2024-01-05T17:00:52.321Z,1.87
2024-01-05T17:03:19.616Z,4.60
2024-01-05T17:05:48.562Z,2.20
2024-01-05T17:08:15.572Z,2.77
2024-01-05T17:10:42.461Z,2.73
2024-01-05T17:13:09.620Z,2.47
2024-01-05T17:15:36.424Z,4.50
2024-01-05T17:18:04.244Z,2.90
2024-01-05T17:20:31.741Z,4.80
2024-01-05T17:22:59.790Z,4.30
2024-01-05T17:25:26.796Z,3.30
2024-01-05T17:27:53.827Z,3.97
2024-01-05T17:30:20.891Z,2.93
2024-01-05T17:32:48.645Z,3.30
2024-01-05T17:35:16.080Z,2.30
2024-01-05T17:37:42.934Z,2.70
2024-01-05T17:40:10.311Z,5.60
2024-01-05T17:42:37.299Z,2.60
2024-01-05T17:45:04.738Z,5.07
2024-01-05T17:47:31.900Z,3.80
2024-01-05T17:49:59.720Z,3.67
2024-01-05T17:52:27.089Z,3.80
2024-01-05T17:54:54.097Z,2.57
2024-01-05T17:57:24.967Z,2.73
2024-01-05T17:59:52.834Z,2.53
2024-01-05T18:02:19.800Z,6.30
2024-01-05T18:04:47.284Z,2.07
2024-01-05T18:07:14.564Z,4.80
2024-01-05T18:09:43.419Z,4.87
2024-01-05T18:12:10.929Z,3.20
2024-01-05T18:14:39.117Z,2.30
2024-01-05T18:17:06.257Z,3.70
2024-01-05T18:19:36.670Z,5.03
2024-01-05T18:22:03.866Z,3.07
2024-01-05T18:24:33.916Z,4.93
2024-01-05T18:27:03.273Z,3.20
2024-01-05T18:29:30.311Z,4.90
2024-01-05T18:32:00.454Z,2.93
2024-01-05T18:34:27.801Z,3.73
2024-01-05T18:36:55.089Z,3.87
2024-01-05T18:39:22.457Z,4.80
2024-01-05T18:41:49.537Z,5.00
2024-01-05T18:44:17.194Z,6.00
2024-01-05T18:46:45.540Z,3.87
2024-01-05T18:49:13.876Z,3.57
2024-01-05T18:51:40.887Z,6.40
2024-01-05T18:54:08.230Z,4.30
2024-01-05T18:56:35.270Z,6.77
2024-01-05T18:59:03.106Z,4.07
2024-01-05T19:01:31.002Z,5.80
2024-01-05T19:03:58.608Z,2.73
2024-01-05T19:06:25.906Z,5.37
2024-01-05T19:08:53.273Z,8.63
2024-01-05T19:11:20.188Z,4.90
2024-01-05T19:13:47.049Z,4.37
2024-01-05T19:16:14.238Z,5.50
2024-01-05T19:18:41.611Z,3.60
2024-01-05T19:21:08.622Z,4.47
2024-01-05T19:23:35.659Z,4.87
2024-01-05T19:26:02.981Z,5.47
2024-01-05T19:28:30.034Z,3.90
2024-01-05T19:30:57.817Z,4.13
2024-01-05T19:33:24.927Z,5.00
2024-01-05T19:35:51.824Z,4.27
2024-01-05T19:38:19.232Z,4.97
2024-01-05T19:40:46.322Z,9.47
2024-01-05T19:43:13.408Z,4.90
2024-01-05T19:45:40.693Z,5.03
2024-01-05T19:48:08.733Z,6.23
2024-01-05T19:50:38.577Z,4.07
2024-01-05T19:53:06.663Z,6.53
2024-01-05T19:55:33.703Z,4.70
2024-01-05T19:58:01.040Z,4.73
2024-01-05T20:00:29.079Z,4.57
2024-01-05T20:02:56.056Z,5.57
2024-01-05T20:05:24.955Z,8.23
2024-01-05T20:07:52.822Z,7.10
2024-01-05T20:10:19.594Z,5.93
2024-01-05T20:12:47.473Z,5.13
2024-01-05T20:15:14.992Z,6.53
2024-01-05T20:17:42.246Z,6.87
2024-01-05T20:20:10.561Z,6.13
2024-01-05T20:22:41.650Z,7.87
2024-01-05T20:25:10.197Z,9.37
2024-01-05T20:27:41.418Z,7.93
2024-01-05T20:30:11.598Z,6.07
2024-01-05T20:32:41.966Z,5.87
2024-01-05T20:35:11.152Z,10.17
2024-01-05T20:37:39.375Z,8.70
2024-01-05T20:40:10.332Z,7.67
2024-01-05T20:42:40.637Z,7.40
2024-01-05T20:45:15.121Z,9.63
2024-01-05T20:47:42.302Z,7.13
2024-01-05T20:50:09.859Z,6.17
2024-01-05T20:52:37.317Z,7.43
2024-01-05T20:55:06.179Z,7.27
2024-01-05T20:57:33.129Z,8.43
2024-01-05T21:00:00.934Z,5.47
2024-01-05T21:02:27.976Z,6.80
2024-01-05T21:04:54.967Z,7.93
2024-01-05T21:07:23.334Z,6.67
2024-01-05T21:09:50.584Z,5.97
2024-01-05T21:12:17.823Z,8.03
2024-01-05T21:14:45.082Z,8.27
2024-01-05T21:17:12.175Z,8.87
2024-01-05T21:19:40.867Z,6.97
2024-01-05T21:22:08.466Z,5.40
2024-01-05T21:24:40.899Z,6.90
2024-01-05T21:27:11.360Z,8.37
2024-01-05T21:29:47.847Z,7.00
2024-01-05T21:32:16.760Z,8.97
2024-01-05T21:34:44.876Z,7.40
2024-01-05T21:37:12.234Z,5.50
2024-01-05T21:39:39.817Z,11.10
2024-01-05T21:42:08.319Z,11.13
2024-01-05T21:44:35.373Z,6.57
2024-01-05T21:47:02.860Z,10.23
2024-01-05T21:49:30.079Z,7.73
2024-01-05T21:51:58.681Z,10.37
2024-01-05T21:54:28.569Z,7.93
2024-01-05T21:56:55.553Z,8.13
2024-01-05T21:59:22.289Z,8.50
2024-01-05T22:01:49.554Z,12.60
2024-01-05T22:04:16.968Z,11.53
2024-01-05T22:06:44.204Z,8.33
2024-01-05T22:09:12.601Z,12.20
2024-01-05T22:11:43.525Z,10.07
2024-01-05T22:14:19.991Z,9.60
2024-01-05T22:16:46.854Z,10.00
2024-01-05T22:19:13.895Z,8.83
2024-01-05T22:21:42.332Z,8.73
2024-01-05T22:24:09.497Z,9.73
2024-01-05T22:26:37.179Z,10.63
2024-01-05T22:29:05.347Z,7.40
2024-01-05T22:31:33.156Z,8.40
2024-01-05T22:34:00.743Z,8.20
2024-01-05T22:36:28.126Z,10.07
2024-01-05T22:38:55.037Z,10.67
2024-01-05T22:41:23.838Z,10.83
2024-01-05T22:43:53.110Z,15.13
2024-01-05T22:46:22.574Z,12.10
2024-01-05T22:48:49.847Z,14.23
2024-01-05T22:51:29.849Z,13.80
2024-01-05T22:53:56.865Z,15.27
2024-01-05T22:56:23.816Z,16.53
2024-01-05T22:58:50.776Z,13.63
2024-01-05T23:01:22.018Z,17.97
2024-01-05T23:03:50.180Z,16.47
2024-01-05T23:06:18.135Z,17.27
2024-01-05T23:08:45.312Z,17.07
2024-01-05T23:11:12.584Z,18.70
2024-01-05T23:13:40.826Z,19.53
2024-01-05T23:16:08.718Z,18.20
2024-01-05T23:18:36.436Z,20.43
2024-01-05T23:21:03.827Z,19.27
2024-01-05T23:23:30.653Z,18.73
2024-01-05T23:25:57.496Z,17.47
2024-01-05T23:28:25.539Z,18.63
2024-01-05T23:30:53.210Z,17.40
2024-01-05T23:33:20.538Z,19.00
2024-01-05T23:35:48.311Z,18.70
2024-01-05T23:38:15.109Z,18.60
2024-01-05T23:40:42.487Z,17.90
2024-01-05T23:43:09.653Z,20.73
2024-01-05T23:45:36.574Z,18.07
2024-01-05T23:48:03.926Z,19.50
2024-01-05T23:50:31.517Z,20.73
2024-01-05T23:52:58.320Z,19.37
2024-01-05T23:55:25.175Z,18.63
2024-01-05T23:57:52.178Z,19.73
